Time;durP1;ratioP1;P1;durP2;ratioP2;P2;SDS_P1;SDS_P2;PMS_P1;PMS_P2;Temp;Humidity;BMP_temperature;BMP_pressure;BME280_temperature;BME280_humidity;BME280_pressure;Samples;Min_cycle;Max_cycle;Signal;HPM_P1;HPM_P2
2021/07/13 00:01:18;;;;;;;;;;;22.50;63.70;;;;;;4999550;28;19925;-63
2021/07/13 00:03:44;;;;;;;;;;;22.50;63.70;;;;;;5004311;28;19924;-63
2021/07/13 00:06:09;;;;;;;;;;;22.50;63.50;;;;;;4989761;28;19918;-62
2021/07/13 00:08:35;;;;;;;;;;;22.50;63.40;;;;;;5001776;28;20429;-62
2021/07/13 00:11:00;;;;;;;;;;;22.50;63.40;;;;;;4996939;28;19940;-63
2021/07/13 00:13:25;;;;;;;;;;;22.50;63.20;;;;;;5003517;28;19921;-63
2021/07/13 00:15:52;;;;;;;;;;;22.50;63.10;;;;;;4993212;28;19918;-62
2021/07/13 00:18:17;;;;;;;;;;;22.50;63.10;;;;;;4997734;28;19918;-63
2021/07/13 00:20:43;;;;;;;;;;;22.50;63.10;;;;;;4997313;28;20441;-63
2021/07/13 00:23:09;;;;;;;;;;;22.50;63.10;;;;;;4997502;28;19918;-63
2021/07/13 00:25:34;;;;;;;;;;;22.50;62.90;;;;;;5003712;28;20624;-62
2021/07/13 00:28:00;;;;;;;;;;;22.50;63.00;;;;;;5001568;28;19918;-63
2021/07/13 00:30:25;;;;;;;;;;;22.50;62.90;;;;;;5000703;28;19926;-62
2021/07/13 00:32:51;;;;;;;;;;;22.50;63.10;;;;;;4998038;28;19918;-64
2021/07/13 00:35:16;;;;;;;;;;;22.40;63.10;;;;;;4998433;28;20005;-63
2021/07/13 00:37:42;;;;;;;;;;;22.40;63.10;;;;;;5002406;28;19919;-62
2021/07/13 00:40:08;;;;;;;;;;;22.40;63.10;;;;;;5002824;28;19922;-62
2021/07/13 00:42:33;;;;;;;;;;;22.50;63.30;;;;;;4996909;28;19925;-61
2021/07/13 00:44:58;;;;;;;;;;;22.50;63.40;;;;;;5000861;28;19929;-62
2021/07/13 00:47:25;;;;;;;;;;;22.50;63.30;;;;;;5003382;28;19917;-62
2021/07/13 00:49:50;;;;;;;;;;;22.50;63.40;;;;;;5001950;28;20399;-62
2021/07/13 00:52:16;;;;;;;;;;;22.60;63.60;;;;;;5000028;28;19918;-63
2021/07/13 00:54:41;;;;;;;;;;;22.50;63.60;;;;;;5003057;28;20051;-62
2021/07/13 00:57:07;;;;;;;;;;;22.60;63.80;;;;;;5002421;28;20333;-62
2021/07/13 00:59:33;;;;;;;;;;;22.50;63.80;;;;;;5002930;28;19933;-62
2021/07/13 01:01:59;;;;;;;;;;;22.60;63.90;;;;;;5002785;28;20293;-63
2021/07/13 01:04:24;;;;;;;;;;;22.60;63.90;;;;;;4996557;28;19973;-62
2021/07/13 01:07:00;;;;;;;;;;;22.60;63.90;;;;;;5002626;28;20420;-62
2021/07/13 01:09:31;;;;;;;;;;;22.60;63.90;;;;;;5001188;28;19921;-62
2021/07/13 01:11:57;;;;;;;;;;;22.60;64.00;;;;;;5011839;28;19999;-63
2021/07/13 01:14:22;;;;;;;;;;;22.60;64.00;;;;;;5002768;28;19929;-62
2021/07/13 01:16:49;;;;;;;;;;;22.60;64.00;;;;;;5002394;28;20290;-62
2021/07/13 01:19:26;;;;;;;;;;;22.60;64.60;;;;;;4996592;28;19976;-62
2021/07/13 01:21:54;;;;;;;;;;;22.60;64.00;;;;;;4996030;28;21658;-63
2021/07/13 01:24:31;;;;;;;;;;;22.60;64.00;;;;;;5018306;28;20012;-64
2021/07/13 01:27:16;;;;;;;;;;;22.60;64.00;;;;;;5003665;28;20007;-62
2021/07/13 01:29:42;;;;;;;;;;;22.60;63.90;;;;;;4996930;28;20411;-63
2021/07/13 01:32:08;;;;;;;;;;;22.60;63.90;;;;;;5002241;28;20052;-63
2021/07/13 01:34:37;;;;;;;;;;;22.60;64.00;;;;;;5003515;28;19925;-62
2021/07/13 01:37:03;;;;;;;;;;;22.60;64.00;;;;;;4996031;28;20526;-63
2021/07/13 01:39:28;;;;;;;;;;;22.60;64.00;;;;;;4985742;28;19918;-62
2021/07/13 01:41:55;;;;;;;;;;;22.60;64.00;;;;;;5002814;28;19924;-62
2021/07/13 01:44:20;;;;;;;;;;;22.60;63.90;;;;;;4991474;28;19917;-63
2021/07/13 01:46:46;;;;;;;;;;;22.60;63.90;;;;;;4979909;28;19924;-63
2021/07/13 01:49:11;;;;;;;;;;;22.60;63.90;;;;;;4984696;28;19973;-63
2021/07/13 01:51:38;;;;;;;;;;;22.60;63.90;;;;;;5001090;28;20379;-63
2021/07/13 01:54:07;;;;;;;;;;;22.60;63.90;;;;;;5002158;28;20379;-62
2021/07/13 01:56:33;;;;;;;;;;;22.60;63.80;;;;;;5001907;28;20254;-63
2021/07/13 01:58:59;;;;;;;;;;;22.60;63.80;;;;;;5001847;28;20004;-62
2021/07/13 02:01:24;;;;;;;;;;;22.60;63.80;;;;;;4994602;28;20036;-65
2021/07/13 02:03:50;;;;;;;;;;;22.60;63.80;;;;;;4984234;28;19980;-63
2021/07/13 02:06:16;;;;;;;;;;;22.60;63.80;;;;;;4993979;28;19933;-62
2021/07/13 02:08:42;;;;;;;;;;;22.60;63.80;;;;;;4981707;28;19977;-63
2021/07/13 02:11:07;;;;;;;;;;;22.60;63.80;;;;;;5014531;28;20411;-63
2021/07/13 02:13:33;;;;;;;;;;;22.60;63.80;;;;;;4998938;28;19921;-63
2021/07/13 02:15:59;;;;;;;;;;;22.60;63.80;;;;;;4999449;28;19918;-62
2021/07/13 02:18:25;;;;;;;;;;;22.60;63.80;;;;;;4995151;28;19917;-62
2021/07/13 02:20:50;;;;;;;;;;;22.50;63.80;;;;;;5002515;28;20290;-62
2021/07/13 02:23:16;;;;;;;;;;;22.60;63.90;;;;;;4996281;28;20364;-62
2021/07/13 02:25:41;;;;;;;;;;;22.60;63.90;;;;;;4993930;28;20007;-63
2021/07/13 02:28:10;;;;;;;;;;;22.60;63.90;;;;;;4995324;28;19917;-63
2021/07/13 02:30:36;;;;;;;;;;;22.60;63.90;;;;;;4995746;28;20587;-63
2021/07/13 02:33:11;;;;;;;;;;;22.60;63.90;;;;;;5000342;28;20022;-64
2021/07/13 02:35:38;;;;;;;;;;;22.60;64.00;;;;;;5001176;28;19979;-63
2021/07/13 02:38:03;;;;;;;;;;;22.50;63.90;;;;;;4995433;28;20003;-63
2021/07/13 02:40:29;;;;;;;;;;;22.50;63.90;;;;;;4996001;28;19922;-63
2021/07/13 02:42:54;;;;;;;;;;;22.50;63.90;;;;;;4997940;28;19928;-63
2021/07/13 02:45:20;;;;;;;;;;;22.50;63.90;;;;;;5000699;28;20601;-64
2021/07/13 02:47:45;;;;;;;;;;;22.50;63.90;;;;;;4994553;28;20012;-62
2021/07/13 02:50:11;;;;;;;;;;;22.60;63.90;;;;;;4997520;28;19921;-62
2021/07/13 02:52:37;;;;;;;;;;;22.50;63.80;;;;;;4999104;28;19952;-63
2021/07/13 02:55:06;;;;;;;;;;;22.50;63.80;;;;;;4978166;28;20546;-63
2021/07/13 02:57:32;;;;;;;;;;;22.50;63.80;;;;;;4993195;28;20009;-63
2021/07/13 02:59:57;;;;;;;;;;;22.60;63.60;;;;;;5017136;28;20146;-63
2021/07/13 03:02:23;;;;;;;;;;;22.60;63.50;;;;;;5000085;28;19928;-63
2021/07/13 03:04:48;;;;;;;;;;;22.50;63.60;;;;;;5001691;28;19929;-63
2021/07/13 03:07:14;;;;;;;;;;;22.60;63.60;;;;;;4996984;28;20111;-62
2021/07/13 03:09:39;;;;;;;;;;;22.60;63.60;;;;;;5000762;28;19930;-62
2021/07/13 03:12:08;;;;;;;;;;;22.60;63.50;;;;;;4991585;28;20155;-64
2021/07/13 03:14:34;;;;;;;;;;;22.60;63.40;;;;;;5001363;28;19974;-63
2021/07/13 03:16:59;;;;;;;;;;;22.60;63.50;;;;;;5016776;28;19921;-62
2021/07/13 03:19:25;;;;;;;;;;;22.60;63.60;;;;;;4995598;28;20371;-63
2021/07/13 03:21:51;;;;;;;;;;;22.60;63.60;;;;;;5000630;28;19925;-63
2021/07/13 03:24:16;;;;;;;;;;;22.60;63.50;;;;;;4990310;28;20004;-63
2021/07/13 03:26:42;;;;;;;;;;;22.60;63.50;;;;;;4997334;28;19997;-62
2021/07/13 03:29:08;;;;;;;;;;;22.60;63.50;;;;;;4993999;28;20280;-62
2021/07/13 03:31:35;;;;;;;;;;;22.60;63.50;;;;;;4995780;28;21279;-62
2021/07/13 03:34:01;;;;;;;;;;;22.60;63.50;;;;;;4995589;28;19922;-62
2021/07/13 03:36:27;;;;;;;;;;;22.60;63.60;;;;;;5000068;28;19918;-63
2021/07/13 03:38:52;;;;;;;;;;;22.50;63.60;;;;;;4999321;28;20405;-62
2021/07/13 03:41:17;;;;;;;;;;;22.50;63.50;;;;;;4999829;28;19937;-62
2021/07/13 03:43:43;;;;;;;;;;;22.50;63.60;;;;;;4994750;28;19917;-62
2021/07/13 03:46:09;;;;;;;;;;;22.50;63.60;;;;;;4997411;28;19922;-62
2021/07/13 03:48:34;;;;;;;;;;;22.50;63.70;;;;;;4989461;28;20444;-63
2021/07/13 03:51:00;;;;;;;;;;;22.50;63.70;;;;;;4991727;28;19939;-62
2021/07/13 03:53:25;;;;;;;;;;;22.50;63.70;;;;;;4999109;28;19921;-63
2021/07/13 03:55:51;;;;;;;;;;;22.50;63.70;;;;;;5003378;28;19933;-64
2021/07/13 03:58:16;;;;;;;;;;;22.50;63.80;;;;;;5004275;28;20601;-62
2021/07/13 04:00:42;;;;;;;;;;;22.50;63.80;;;;;;5005063;28;20157;-63
2021/07/13 04:03:07;;;;;;;;;;;22.50;63.80;;;;;;5000475;28;19917;-62
2021/07/13 04:05:33;;;;;;;;;;;22.50;63.70;;;;;;5003730;28;19917;-62
2021/07/13 04:07:58;;;;;;;;;;;22.50;63.80;;;;;;4994076;28;20414;-63
2021/07/13 04:10:23;;;;;;;;;;;22.40;63.70;;;;;;4997084;28;19967;-63
2021/07/13 04:12:49;;;;;;;;;;;22.40;63.80;;;;;;5002801;28;20570;-62
2021/07/13 04:15:14;;;;;;;;;;;22.30;63.90;;;;;;5003498;28;20200;-63
2021/07/13 04:17:40;;;;;;;;;;;22.30;63.90;;;;;;5002467;28;20595;-62
2021/07/13 04:20:06;;;;;;;;;;;22.30;63.90;;;;;;4999513;28;19932;-63
2021/07/13 04:22:31;;;;;;;;;;;22.30;63.80;;;;;;4998017;28;20031;-62
2021/07/13 04:24:57;;;;;;;;;;;22.30;63.70;;;;;;4996284;28;20440;-63
2021/07/13 04:27:22;;;;;;;;;;;22.30;63.80;;;;;;5000984;28;19976;-63
2021/07/13 04:29:48;;;;;;;;;;;22.40;64.00;;;;;;5002329;28;19925;-62
2021/07/13 04:32:13;;;;;;;;;;;22.40;63.90;;;;;;5004026;28;20284;-62
2021/07/13 04:34:39;;;;;;;;;;;22.40;64.00;;;;;;5004662;28;19921;-63
2021/07/13 04:37:04;;;;;;;;;;;22.40;64.10;;;;;;4997808;28;19925;-63
2021/07/13 04:39:30;;;;;;;;;;;22.40;64.20;;;;;;5002624;28;19917;-62
2021/07/13 04:41:55;;;;;;;;;;;22.40;64.10;;;;;;5003735;28;20310;-63
2021/07/13 04:44:20;;;;;;;;;;;22.40;64.00;;;;;;4993412;28;19922;-63
2021/07/13 04:46:46;;;;;;;;;;;22.50;64.20;;;;;;4997000;28;19924;-63
2021/07/13 04:49:14;;;;;;;;;;;22.50;64.40;;;;;;5001767;28;19929;-64
2021/07/13 04:51:39;;;;;;;;;;;22.50;64.40;;;;;;5017069;28;19918;-63
2021/07/13 04:54:05;;;;;;;;;;;22.50;64.50;;;;;;5003277;28;19921;-62
2021/07/13 04:56:30;;;;;;;;;;;22.50;64.60;;;;;;4999950;28;19924;-62
2021/07/13 04:58:56;;;;;;;;;;;22.50;64.60;;;;;;4998662;28;20434;-62
2021/07/13 05:01:22;;;;;;;;;;;22.60;65.00;;;;;;5002854;28;20008;-62
2021/07/13 05:03:47;;;;;;;;;;;22.50;64.70;;;;;;5001307;28;19923;-63
2021/07/13 05:06:14;;;;;;;;;;;22.50;64.40;;;;;;4998500;28;19932;-63
2021/07/13 05:08:40;;;;;;;;;;;22.50;64.50;;;;;;5003341;28;19917;-63
2021/07/13 05:11:06;;;;;;;;;;;22.50;64.50;;;;;;5000004;28;20287;-63
2021/07/13 05:13:32;;;;;;;;;;;22.50;64.50;;;;;;4984976;28;19933;-64
2021/07/13 05:15:57;;;;;;;;;;;22.40;64.80;;;;;;5003866;28;20505;-63
2021/07/13 05:18:23;;;;;;;;;;;22.40;64.40;;;;;;5000381;28;19944;-63
2021/07/13 05:20:53;;;;;;;;;;;22.40;64.50;;;;;;4998757;28;19967;-62
2021/07/13 05:23:19;;;;;;;;;;;22.50;64.50;;;;;;5002479;28;19918;-63
2021/07/13 05:25:44;;;;;;;;;;;22.50;65.30;;;;;;4997835;28;20459;-63
2021/07/13 05:28:13;;;;;;;;;;;22.50;65.40;;;;;;4983502;28;19914;-63
2021/07/13 05:30:38;;;;;;;;;;;22.50;65.10;;;;;;4993349;28;20368;-62
2021/07/13 05:33:04;;;;;;;;;;;22.50;65.30;;;;;;5001802;28;19920;-62
2021/07/13 05:35:29;;;;;;;;;;;22.60;64.80;;;;;;4997467;28;19996;-63
2021/07/13 05:37:55;;;;;;;;;;;22.60;64.90;;;;;;4996294;28;19925;-64
2021/07/13 05:40:20;;;;;;;;;;;22.60;64.80;;;;;;4997777;28;20411;-64
2021/07/13 05:42:45;;;;;;;;;;;22.60;65.40;;;;;;4997371;28;19918;-63
2021/07/13 05:45:11;;;;;;;;;;;22.60;64.70;;;;;;4994567;28;19929;-63
2021/07/13 05:47:36;;;;;;;;;;;22.60;64.70;;;;;;4990495;28;20005;-63
2021/07/13 05:50:03;;;;;;;;;;;22.60;64.60;;;;;;4992850;28;19940;-63
2021/07/13 05:52:29;;;;;;;;;;;22.60;64.60;;;;;;4993904;28;19952;-63
2021/07/13 05:54:54;;;;;;;;;;;22.60;64.50;;;;;;4987113;28;19992;-62
2021/07/13 05:57:20;;;;;;;;;;;22.60;64.50;;;;;;4999360;28;19917;-63
2021/07/13 05:59:45;;;;;;;;;;;22.60;64.60;;;;;;4989955;28;19984;-62
2021/07/13 06:02:10;;;;;;;;;;;22.60;65.30;;;;;;4992821;28;19940;-63
2021/07/13 06:04:36;;;;;;;;;;;22.60;65.50;;;;;;4996211;28;19914;-62
2021/07/13 06:07:01;;;;;;;;;;;22.60;65.90;;;;;;4987982;28;20319;-63
2021/07/13 06:09:27;;;;;;;;;;;22.60;65.60;;;;;;5004399;28;20402;-62
2021/07/13 06:11:53;;;;;;;;;;;22.60;65.50;;;;;;4996661;28;19944;-62
2021/07/13 06:14:19;;;;;;;;;;;22.60;65.20;;;;;;5005249;28;19924;-62
2021/07/13 06:16:44;;;;;;;;;;;22.60;65.20;;;;;;4986104;28;19921;-62
2021/07/13 06:19:10;;;;;;;;;;;22.70;65.10;;;;;;4999734;23;19997;-62
2021/07/13 06:21:35;;;;;;;;;;;22.70;65.10;;;;;;4958121;28;20583;-61
2021/07/13 06:24:01;;;;;;;;;;;22.70;65.10;;;;;;4992289;28;19918;-65
2021/07/13 06:26:26;;;;;;;;;;;22.70;65.00;;;;;;4973476;28;19917;-63
2021/07/13 06:28:52;;;;;;;;;;;22.70;64.90;;;;;;4959339;28;19925;-63
2021/07/13 06:31:17;;;;;;;;;;;22.70;65.10;;;;;;4957164;28;20438;-63
2021/07/13 06:33:42;;;;;;;;;;;22.70;64.90;;;;;;4958792;28;19925;-63
2021/07/13 06:36:08;;;;;;;;;;;22.70;64.90;;;;;;4957947;28;19921;-62
2021/07/13 06:38:34;;;;;;;;;;;22.70;64.90;;;;;;4958040;28;20043;-62
2021/07/13 06:40:59;;;;;;;;;;;22.70;64.90;;;;;;5005295;28;20325;-63
2021/07/13 06:43:25;;;;;;;;;;;22.70;64.90;;;;;;4962842;28;19915;-62
2021/07/13 06:45:50;;;;;;;;;;;22.70;64.80;;;;;;4973340;28;19926;-60
2021/07/13 06:48:16;;;;;;;;;;;22.70;64.80;;;;;;4957891;28;19929;-61
2021/07/13 06:50:41;;;;;;;;;;;22.70;64.80;;;;;;4959167;28;20280;-63
2021/07/13 06:53:06;;;;;;;;;;;22.70;64.80;;;;;;4956517;28;20556;-59
2021/07/13 06:55:33;;;;;;;;;;;22.70;64.90;;;;;;4959381;28;19953;-63
2021/07/13 06:57:58;;;;;;;;;;;22.70;64.80;;;;;;4957630;28;19914;-62
2021/07/13 07:00:24;;;;;;;;;;;22.70;64.90;;;;;;4959959;28;20513;-63
2021/07/13 07:02:49;;;;;;;;;;;22.70;64.90;;;;;;4958540;28;19941;-62
2021/07/13 07:05:15;;;;;;;;;;;22.70;65.00;;;;;;4957678;28;19969;-63
2021/07/13 07:07:47;;;;;;;;;;;22.70;64.90;;;;;;4958112;28;20010;-63
2021/07/13 07:10:12;;;;;;;;;;;22.70;64.90;;;;;;4959343;28;19914;-62
2021/07/13 07:12:38;;;;;;;;;;;22.70;64.80;;;;;;5008768;28;20460;-62
2021/07/13 07:15:03;;;;;;;;;;;22.70;64.80;;;;;;4996937;28;19925;-62
2021/07/13 07:17:29;;;;;;;;;;;22.70;64.90;;;;;;4961634;28;19914;-63
2021/07/13 07:19:56;;;;;;;;;;;22.70;65.00;;;;;;4964091;28;19934;-62
2021/07/13 07:22:22;;;;;;;;;;;22.70;65.00;;;;;;4958408;28;19925;-62
2021/07/13 07:24:47;;;;;;;;;;;22.70;65.00;;;;;;4959807;28;20233;-61
2021/07/13 07:27:13;;;;;;;;;;;22.70;65.00;;;;;;4957875;28;19929;-62
2021/07/13 07:29:38;;;;;;;;;;;22.70;65.00;;;;;;4962962;28;19924;-60
2021/07/13 07:32:04;;;;;;;;;;;22.70;65.00;;;;;;4961086;28;19914;-62
2021/07/13 07:34:29;;;;;;;;;;;22.70;65.70;;;;;;4968769;28;19922;-61
2021/07/13 07:36:55;;;;;;;;;;;22.70;65.00;;;;;;4969811;28;19921;-63
2021/07/13 07:39:20;;;;;;;;;;;22.70;65.10;;;;;;4962695;28;19946;-62
2021/07/13 07:41:45;;;;;;;;;;;22.70;65.10;;;;;;4960370;28;19961;-63
2021/07/13 07:44:11;;;;;;;;;;;22.70;65.10;;;;;;4962862;28;19918;-63
2021/07/13 07:46:41;;;;;;;;;;;22.70;65.10;;;;;;4994135;28;20289;-63
2021/07/13 07:49:07;;;;;;;;;;;22.70;65.10;;;;;;5000132;28;19968;-59
2021/07/13 07:51:32;;;;;;;;;;;22.70;65.10;;;;;;5000481;28;19914;-60
2021/07/13 07:53:58;;;;;;;;;;;22.70;65.10;;;;;;4999614;28;19917;-61
2021/07/13 07:56:23;;;;;;;;;;;22.70;65.20;;;;;;5000880;28;20496;-62
2021/07/13 07:58:49;;;;;;;;;;;22.70;65.20;;;;;;5000421;28;19917;-61
2021/07/13 08:01:14;;;;;;;;;;;22.70;65.20;;;;;;4997993;28;19921;-62
2021/07/13 08:03:40;;;;;;;;;;;22.70;65.10;;;;;;5001050;28;19913;-62
2021/07/13 08:06:05;;;;;;;;;;;22.70;65.20;;;;;;4970749;28;19939;-62
2021/07/13 08:08:30;;;;;;;;;;;22.70;65.20;;;;;;4980184;28;19968;-63
2021/07/13 08:10:56;;;;;;;;;;;22.70;65.20;;;;;;4969998;28;20531;-62
2021/07/13 08:13:21;;;;;;;;;;;22.70;65.20;;;;;;4961754;28;19921;-62
2021/07/13 08:15:47;;;;;;;;;;;22.70;65.30;;;;;;4962052;28;20394;-63
2021/07/13 08:18:12;;;;;;;;;;;22.70;65.30;;;;;;4961842;28;19914;-62
2021/07/13 08:20:38;;;;;;;;;;;22.70;65.30;;;;;;4962075;28;19925;-61
2021/07/13 08:23:03;;;;;;;;;;;22.70;65.30;;;;;;4961893;28;20104;-62
2021/07/13 08:25:29;;;;;;;;;;;22.70;66.00;;;;;;4962495;28;19915;-62
2021/07/13 08:27:54;;;;;;;;;;;22.70;65.40;;;;;;4961298;28;20587;-63
2021/07/13 08:30:20;;;;;;;;;;;22.70;65.30;;;;;;4959554;28;19914;-63
2021/07/13 08:32:46;;;;;;;;;;;22.70;65.30;;;;;;4961494;28;20030;-62
2021/07/13 08:35:12;;;;;;;;;;;22.70;65.30;;;;;;4962481;28;20637;-63
2021/07/13 08:37:37;;;;;;;;;;;22.70;65.40;;;;;;4961820;28;19920;-62
2021/07/13 08:40:04;;;;;;;;;;;22.70;65.50;;;;;;4959797;28;20626;-63
2021/07/13 08:42:35;;;;;;;;;;;22.70;65.50;;;;;;4960929;28;19918;-62
2021/07/13 08:45:01;;;;;;;;;;;22.70;65.40;;;;;;4974626;28;19914;-68
2021/07/13 08:47:27;;;;;;;;;;;22.70;65.60;;;;;;4979407;28;19945;-64
2021/07/13 08:49:52;;;;;;;;;;;22.70;65.60;;;;;;4981236;28;19954;-63
2021/07/13 08:52:18;;;;;;;;;;;22.70;65.60;;;;;;4980877;28;19972;-63
2021/07/13 08:54:43;;;;;;;;;;;22.70;65.50;;;;;;4971556;28;19928;-61
2021/07/13 08:57:09;;;;;;;;;;;22.70;65.90;;;;;;4961908;28;19914;-64
2021/07/13 08:59:35;;;;;;;;;;;22.70;66.00;;;;;;4959733;28;19914;-63
2021/07/13 09:02:00;;;;;;;;;;;22.70;66.50;;;;;;4987389;28;19956;-63
2021/07/13 09:04:31;;;;;;;;;;;22.70;66.10;;;;;;4966871;28;20364;-64
2021/07/13 09:06:57;;;;;;;;;;;22.70;66.30;;;;;;4960510;28;19918;-63
2021/07/13 09:09:26;;;;;;;;;;;22.70;66.50;;;;;;4960717;28;19961;-62
2021/07/13 09:12:25;;;;;;;;;;;22.70;66.90;;;;;;4960479;28;19965;-62
2021/07/13 09:14:55;;;;;;;;;;;22.70;67.00;;;;;;4939739;28;20292;-63
2021/07/13 09:17:26;;;;;;;;;;;22.70;66.90;;;;;;5013300;28;19925;-64
2021/07/13 09:19:58;;;;;;;;;;;22.70;67.10;;;;;;4999287;28;20028;-61
2021/07/13 09:22:23;;;;;;;;;;;22.70;67.40;;;;;;4984026;28;19914;-62
2021/07/13 09:24:49;;;;;;;;;;;22.70;67.20;;;;;;4959592;28;19914;-63
2021/07/13 09:27:16;;;;;;;;;;;22.70;67.60;;;;;;4974682;28;19914;-63
2021/07/13 09:29:42;;;;;;;;;;;22.70;67.70;;;;;;4966689;28;19988;-62
2021/07/13 09:32:28;;;;;;;;;;;22.70;68.00;;;;;;4961527;28;19946;-63
2021/07/13 09:35:03;;;;;;;;;;;22.70;68.30;;;;;;4961016;28;19918;-62
2021/07/13 09:37:32;;;;;;;;;;;22.70;68.30;;;;;;5007381;28;20084;-63
2021/07/13 09:39:59;;;;;;;;;;;22.70;68.30;;;;;;4960376;28;20420;-63
2021/07/13 09:42:24;;;;;;;;;;;22.70;67.80;;;;;;4959438;28;20651;-62
2021/07/13 09:44:50;;;;;;;;;;;22.70;68.40;;;;;;4960526;28;19993;-62
2021/07/13 09:47:28;;;;;;;;;;;22.70;68.60;;;;;;4959574;28;20403;-64
2021/07/13 09:49:53;;;;;;;;;;;22.70;69.10;;;;;;4966730;28;20387;-60
2021/07/13 09:52:22;;;;;;;;;;;22.70;69.30;;;;;;4958500;28;19921;-63
2021/07/13 09:54:47;;;;;;;;;;;22.70;69.40;;;;;;4960471;28;19953;-61
2021/07/13 09:57:16;;;;;;;;;;;22.70;69.50;;;;;;4984573;28;19928;-64
2021/07/13 09:59:43;;;;;;;;;;;22.70;69.60;;;;;;4960845;28;19928;-63
2021/07/13 10:02:08;;;;;;;;;;;22.70;69.60;;;;;;4960394;28;19918;-60
2021/07/13 10:04:37;;;;;;;;;;;22.70;69.60;;;;;;4960928;28;19918;-62
2021/07/13 10:07:04;;;;;;;;;;;22.70;69.60;;;;;;5015569;28;20260;-63
2021/07/13 10:09:31;;;;;;;;;;;22.70;69.40;;;;;;4998150;28;19920;-63
2021/07/13 10:11:57;;;;;;;;;;;22.80;69.50;;;;;;4970074;28;20633;-64
2021/07/13 10:14:22;;;;;;;;;;;22.70;69.00;;;;;;4959931;28;19922;-62
2021/07/13 10:16:47;;;;;;;;;;;22.70;69.70;;;;;;4960246;28;19914;-64
2021/07/13 10:19:13;;;;;;;;;;;22.70;68.70;;;;;;4967906;28;19926;-63
2021/07/13 10:21:38;;;;;;;;;;;22.70;69.80;;;;;;4972160;28;20572;-63
2021/07/13 10:24:04;;;;;;;;;;;22.70;69.40;;;;;;4958659;28;19937;-64
2021/07/13 10:26:48;;;;;;;;;;;22.70;69.40;;;;;;4957983;28;19977;-63
2021/07/13 10:29:32;;;;;;;;;;;22.70;69.40;;;;;;4998488;28;19914;-64
2021/07/13 10:32:10;;;;;;;;;;;22.80;69.40;;;;;;4960655;28;19918;-63
2021/07/13 10:34:51;;;;;;;;;;;22.80;68.90;;;;;;4960452;28;19981;-64
2021/07/13 10:37:26;;;;;;;;;;;22.70;69.00;;;;;;4979084;28;19968;-64
2021/07/13 10:39:52;;;;;;;;;;;22.80;68.90;;;;;;4993416;28;19913;-63
2021/07/13 10:42:37;;;;;;;;;;;22.80;68.60;;;;;;4960538;28;19953;-63
2021/07/13 10:45:14;;;;;;;;;;;22.80;68.00;;;;;;4972034;28;19996;-62
2021/07/13 10:47:59;;;;;;;;;;;22.80;68.10;;;;;;4996143;28;20386;-62
2021/07/13 10:50:24;;;;;;;;;;;22.80;67.90;;;;;;4999170;28;19948;-63
2021/07/13 10:52:53;;;;;;;;;;;22.80;67.90;;;;;;4996873;28;19945;-63
2021/07/13 10:55:30;;;;;;;;;;;22.80;68.10;;;;;;4971258;28;19957;-62
2021/07/13 10:58:14;;;;;;;;;;;22.80;67.80;;;;;;4978835;28;19914;-63
2021/07/13 11:01:00;;;;;;;;;;;22.80;68.00;;;;;;4993881;28;19920;-62
2021/07/13 11:03:31;;;;;;;;;;;22.80;67.90;;;;;;4978834;28;20371;-64
2021/07/13 11:05:57;;;;;;;;;;;22.80;68.20;;;;;;4979475;28;22411;-63
2021/07/13 11:08:41;;;;;;;;;;;22.80;68.50;;;;;;4977246;28;19917;-64
2021/07/13 11:11:06;;;;;;;;;;;22.80;68.10;;;;;;4963415;28;19918;-63
2021/07/13 11:13:32;;;;;;;;;;;22.80;68.80;;;;;;5013784;28;20665;-62
2021/07/13 11:15:58;;;;;;;;;;;22.80;68.60;;;;;;4998792;28;20375;-64
2021/07/13 11:18:30;;;;;;;;;;;22.80;69.00;;;;;;4996635;28;19932;-64
2021/07/13 11:20:59;;;;;;;;;;;22.80;68.60;;;;;;4983814;28;20435;-64
2021/07/13 11:23:27;;;;;;;;;;;22.80;69.00;;;;;;4957745;28;19914;-63
2021/07/13 11:26:02;;;;;;;;;;;22.80;69.20;;;;;;4961357;28;20122;-61
2021/07/13 11:28:28;;;;;;;;;;;22.80;69.00;;;;;;4965227;28;19914;-64
2021/07/13 11:30:54;;;;;;;;;;;22.80;69.00;;;;;;4959234;28;19914;-63
2021/07/13 11:33:24;;;;;;;;;;;22.80;68.50;;;;;;4958044;28;20425;-64
2021/07/13 11:35:52;;;;;;;;;;;22.80;68.60;;;;;;4987921;28;19921;-62
2021/07/13 11:38:27;;;;;;;;;;;22.80;68.60;;;;;;4971925;28;19997;-63
2021/07/13 11:41:12;;;;;;;;;;;22.80;68.50;;;;;;4958641;28;19922;-64
2021/07/13 11:43:37;;;;;;;;;;;22.90;68.20;;;;;;4975891;28;19937;-68
2021/07/13 11:46:12;;;;;;;;;;;22.90;67.90;;;;;;4976230;28;19914;-63
2021/07/13 11:48:38;;;;;;;;;;;22.90;67.80;;;;;;4979217;28;20311;-63
2021/07/13 11:51:03;;;;;;;;;;;22.90;67.60;;;;;;4965923;28;19914;-64
2021/07/13 11:53:29;;;;;;;;;;;22.90;67.50;;;;;;4957602;28;19918;-63
2021/07/13 11:56:00;;;;;;;;;;;22.90;67.00;;;;;;4959066;28;19914;-64
2021/07/13 11:58:29;;;;;;;;;;;22.90;67.50;;;;;;4958462;28;19914;-62
2021/07/13 12:01:14;;;;;;;;;;;22.80;67.30;;;;;;4957771;28;19993;-63
2021/07/13 12:03:39;;;;;;;;;;;22.90;67.30;;;;;;4979360;28;20387;-64
2021/07/13 12:06:11;;;;;;;;;;;22.90;67.20;;;;;;4978718;28;19964;-63
2021/07/13 12:08:37;;;;;;;;;;;22.90;67.30;;;;;;4996752;28;19914;-64
2021/07/13 12:11:03;;;;;;;;;;;22.90;67.10;;;;;;4996703;28;19922;-62
2021/07/13 12:13:28;;;;;;;;;;;22.90;67.10;;;;;;4996231;28;19922;-60
2021/07/13 12:15:57;;;;;;;;;;;22.90;67.00;;;;;;4988393;28;19918;-63
2021/07/13 12:18:22;;;;;;;;;;;22.90;66.90;;;;;;4980380;28;19921;-63
2021/07/13 12:20:48;;;;;;;;;;;22.90;66.90;;;;;;4990096;23;19926;-63
2021/07/13 12:23:13;;;;;;;;;;;22.90;66.90;;;;;;4964550;28;19914;-64
2021/07/13 12:25:39;;;;;;;;;;;22.90;66.90;;;;;;4964725;28;20338;-62
2021/07/13 12:28:11;;;;;;;;;;;22.90;66.90;;;;;;4976132;28;20386;-63
2021/07/13 12:30:36;;;;;;;;;;;23.00;66.90;;;;;;4992800;28;19914;-62
2021/07/13 12:33:02;;;;;;;;;;;23.00;66.80;;;;;;4998412;28;19917;-63
2021/07/13 12:35:28;;;;;;;;;;;22.90;66.70;;;;;;5000928;28;19960;-63
2021/07/13 12:37:53;;;;;;;;;;;23.00;66.70;;;;;;5015467;28;19957;-61
2021/07/13 12:40:18;;;;;;;;;;;22.90;66.70;;;;;;4998459;28;19967;-63
2021/07/13 12:42:46;;;;;;;;;;;23.00;66.70;;;;;;4999718;28;20389;-62
2021/07/13 12:45:22;;;;;;;;;;;23.00;66.80;;;;;;4999209;28;19914;-62
2021/07/13 12:47:47;;;;;;;;;;;22.90;66.70;;;;;;4999855;28;19917;-62
2021/07/13 12:50:19;;;;;;;;;;;23.00;66.70;;;;;;4998148;28;19917;-63
2021/07/13 12:52:46;;;;;;;;;;;23.00;66.70;;;;;;4999205;28;19914;-63
2021/07/13 12:55:13;;;;;;;;;;;23.00;66.80;;;;;;5000472;28;19933;-63
2021/07/13 12:57:42;;;;;;;;;;;23.00;66.80;;;;;;4999143;28;20602;-63
2021/07/13 13:00:09;;;;;;;;;;;23.00;67.00;;;;;;5001157;28;20413;-66
2021/07/13 13:02:34;;;;;;;;;;;23.00;67.20;;;;;;4996944;28;19980;-63
2021/07/13 13:05:00;;;;;;;;;;;23.00;67.30;;;;;;5000903;28;19917;-63
2021/07/13 13:07:25;;;;;;;;;;;23.00;67.40;;;;;;5000314;28;19924;-62
2021/07/13 13:09:51;;;;;;;;;;;23.00;67.30;;;;;;5000276;28;19924;-62
2021/07/13 13:12:16;;;;;;;;;;;23.00;67.50;;;;;;5000781;28;20066;-63
2021/07/13 13:14:45;;;;;;;;;;;23.00;67.50;;;;;;5000275;28;19949;-62
2021/07/13 13:17:13;;;;;;;;;;;23.00;67.50;;;;;;4998100;28;19946;-63
2021/07/13 13:19:39;;;;;;;;;;;23.00;67.40;;;;;;5000222;28;20052;-64
2021/07/13 13:22:05;;;;;;;;;;;23.00;67.50;;;;;;4999851;28;19940;-63
2021/07/13 13:24:30;;;;;;;;;;;23.00;67.40;;;;;;4999790;28;20406;-63
2021/07/13 13:26:56;;;;;;;;;;;23.10;67.30;;;;;;4999686;28;20393;-63
2021/07/13 13:29:21;;;;;;;;;;;23.10;67.40;;;;;;4998827;28;19913;-63
2021/07/13 13:31:47;;;;;;;;;;;23.10;67.10;;;;;;4999708;28;20134;-62
2021/07/13 13:34:12;;;;;;;;;;;23.10;67.30;;;;;;4999586;28;19925;-62
2021/07/13 13:36:42;;;;;;;;;;;23.10;67.40;;;;;;4999545;28;19923;-63
2021/07/13 13:39:18;;;;;;;;;;;23.10;67.50;;;;;;4999489;28;20183;-62
2021/07/13 13:41:43;;;;;;;;;;;23.10;67.40;;;;;;5002271;28;19913;-63
2021/07/13 13:44:09;;;;;;;;;;;23.10;67.40;;;;;;4997525;28;20394;-62
2021/07/13 13:46:34;;;;;;;;;;;23.10;67.30;;;;;;4999168;28;19921;-63
2021/07/13 13:49:00;;;;;;;;;;;23.10;67.40;;;;;;4999055;28;19924;-63
2021/07/13 13:51:25;;;;;;;;;;;23.10;67.60;;;;;;5000262;28;19925;-63
2021/07/13 13:53:51;;;;;;;;;;;23.10;67.70;;;;;;5000354;28;20434;-63
2021/07/13 13:56:19;;;;;;;;;;;23.10;67.80;;;;;;5000844;28;19917;-63
2021/07/13 13:58:45;;;;;;;;;;;23.10;67.40;;;;;;4999371;28;19928;-62
2021/07/13 14:01:11;;;;;;;;;;;23.20;67.80;;;;;;5015069;28;19914;-63
2021/07/13 14:03:37;;;;;;;;;;;23.20;68.10;;;;;;4999857;28;19940;-63
2021/07/13 14:06:02;;;;;;;;;;;23.20;67.90;;;;;;4999216;28;19913;-65
2021/07/13 14:08:28;;;;;;;;;;;23.20;68.30;;;;;;5000653;28;19939;-63
2021/07/13 14:10:53;;;;;;;;;;;23.20;68.50;;;;;;5000279;28;19913;-63
2021/07/13 14:13:19;;;;;;;;;;;23.20;68.40;;;;;;4999277;28;19913;-63
2021/07/13 14:15:44;;;;;;;;;;;23.30;68.00;;;;;;5000332;28;20342;-63